DW8571 Weather Reports


Display with metric or nautical units.
time (UTC)temp
F
wind
direction
speed
MPH
gust
MPH
rain 1hr
in
rain 24hr
in
rain mn
in
humidity
%
barometer
mb
20190124004528 36 5 5.0 14.0 0.00 0.51 0.51 96 1010.3
20190124003059 37 332 6.0 14.0 0.00 0.51 0.51 96 1010.2
20190124001527 37 306 6.0 15.0 0.00 0.51 0.51 96 1009.9
20190124000040 37 314 5.0 11.0 0.01 0.51 0.51 96 1009.6
20190123234539 38 299 5.0 13.0 0.03 0.51 0.51 95 1009.0
20190123233038 38 345 8.0 13.0 0.04 0.51 0.51 96 1008.9
20190123231539 39 342 3.0 10.0 0.06 0.51 0.51 96 1008.7
20190123230017 39 9 4.0 10.0 0.06 0.49 0.49 96 1008.9
20190123224526 40 64 3.0 8.0 0.07 0.48 0.48 96 1008.3
20190123223007 40 42 3.0 9.0 0.07 0.47 0.47 96 1008.8
20190123221527 40 350 5.0 13.0 0.06 0.45 0.45 95 1008.9
20190123220013 41 355 3.0 12.0 0.06 0.43 0.43 95 1008.0
20190123214501 41 5 7.0 16.0 0.05 0.41 0.41 93 1007.2
20190123213156 45 342 4.0 10.0 0.05 0.40 0.40 96 1008.0
20190123211631 46 342 6.0 13.0 0.06 0.39 0.39 95 1007.3
20190123210147 48 316 5.0 12.0 0.05 0.38 0.38 95 1007.6
20190123204654 49 288 5.0 11.0 0.04 0.36 0.36 95 1007.8
20190123203236 52 290 9.0 13.0 0.04 0.35 0.35 96 1006.9
20190123201615 53 316 2.0 5.0 0.03 0.33 0.33 96 1006.4
20190123200208 53 280 1.0 6.0 0.04 0.33 0.33 96 1006.9
20190123194606 53 287 2.0 5.0 0.04 0.32 0.32 96 1007.9
20190123193127 53 309 1.0 4.0 0.03 0.31 0.31 96 1007.9
20190123191655 53 311 1.0 3.0 0.02 0.30 0.30 96 1007.8
20190123190052 54 286 1.0 4.0 0.01 0.28 0.28 96 1007.2
20190123184558 54 290 2.0 5.0 0.00 0.28 0.28 96 1007.2
20190123183048 54 300 3.0 7.0 0.00 0.28 0.28 97 1007.9
20190123181631 54 292 2.0 6.0 0.00 0.28 0.28 97 1008.2
20190123180136 54 12 0.0 3.0 0.00 0.28 0.28 97 1008.2
20190123174554 54 12 0.0 3.0 0.01 0.28 0.28 98 1009.0
20190123173147 53 305 0.0 5.0 0.03 0.28 0.28 97 1009.1
20190123171552 53 309 0.0 3.0 0.06 0.28 0.28 97 1009.6
20190123170104 53 300 3.0 5.0 0.09 0.28 0.28 97 1010.1
20190123164605 53 306 0.0 0.0 0.13 0.27 0.27 97 1010.3
20190123163043 53 336 2.0 4.0 0.17 0.25 0.25 97 1009.8
20190123161550 53 327 3.0 5.0 0.17 0.22 0.22 97 1010.5
20190123160051 53 315 3.0 7.0 0.15 0.19 0.19 97 1010.2
20190123154555 53 298 3.0 6.0 0.11 0.14 0.14 97 1010.4
20190123153055 53 284 6.0 9.0 0.06 0.08 0.08 97 1010.8
20190123151558 53 288 2.0 5.0 0.04 0.05 0.05 96 1010.0
20190123150034 53 281 2.0 4.0 0.04 0.04 0.04 96 1009.6
20190123144553 53 296 2.0 8.0 0.03 0.03 0.03 96 1010.0
20190123143101 54 275 4.0 9.0 0.02 0.02 0.02 95 1010.0
20190123141608 54 182 5.0 12.0 0.01 0.01 0.01 94 1009.7
20190123140054 54 190 4.0 10.0 0.00 0.00 0.00 93 1010.2
20190123134544 54 208 4.0 10.0 0.00 0.00 0.00 92 1010.4
20190123133023 54 196 3.0 10.0 0.00 0.00 0.00 92 1010.5
20190123131528 54 190 2.0 9.0 0.00 0.00 0.00 92 1010.9
20190123130036 54 186 5.0 13.0 0.00 0.00 0.00 92 1010.6
20190123124533 54 204 6.0 15.0 0.00 0.00 0.00 91 1010.6
20190123123040 54 343 5.0 20.0 0.00 0.00 0.00 91 1010.6
20190123121555 54 204 8.0 20.0 0.00 0.00 0.00 91 1010.0
20190123120031 54 209 12.0 26.0 0.00 0.00 0.00 91 1009.8
20190123114540 54 188 12.0 25.0 0.00 0.00 0.00 90 1009.8
20190123113141 54 178 11.0 21.0 0.00 0.00 0.00 90 1009.6
20190123111510 54 199 10.0 23.0 0.00 0.00 0.00 90 1010.0
20190123110042 53 194 12.0 21.0 0.00 0.00 0.00 91 1010.2
20190123104511 53 184 14.0 26.0 0.00 0.00 0.00 91 1010.6
20190123103211 53 186 11.0 22.0 0.00 0.00 0.00 91 1010.8
20190123101618 52 184 11.0 28.0 0.00 0.00 0.00 90 1011.0
20190123100329 52 200 10.0 22.0 0.00 0.00 0.00 90 1011.7
20190123094711 52 191 10.0 22.0 0.00 0.00 0.00 90 1011.9
20190123093150 52 173 9.0 18.0 0.00 0.00 0.00 90 1012.3
20190123091740 52 169 6.0 18.0 0.00 0.00 0.00 89 1012.4
20190123090127 52 190 9.0 22.0 0.00 0.00 0.00 88 1012.3
20190123084632 52 153 8.0 18.0 0.00 0.00 0.00 89 1012.5
20190123083117 52 199 11.0 22.0 0.00 0.00 0.00 88 1012.7
20190123081632 52 184 8.0 16.0 0.00 0.00 0.00 88 1012.7
20190123080117 51 205 12.0 20.0 0.00 0.00 0.00 87 1013.2
20190123074559 51 217 8.0 18.0 0.00 0.00 0.00 87 1013.9
20190123073146 52 167 9.0 19.0 0.00 0.00 0.00 86 1014.4
20190123071607 51 171 11.0 28.0 0.00 0.00 0.00 86 1014.7
20190123070057 51 187 8.0 19.0 0.00 0.00 0.00 86 1014.6
20190123064646 51 190 10.0 16.0 0.00 0.00 0.00 85 1015.1
20190123063054 51 170 9.0 17.0 0.00 0.00 0.00 84 1015.0
20190123061553 51 216 7.0 19.0 0.00 0.00 0.00 84 1015.5
20190123060113 51 200 10.0 19.0 0.00 0.00 0.00 85 1015.5
20190123054535 51 192 13.0 24.0 0.00 0.00 0.00 84 1015.3
20190123053030 51 187 12.0 22.0 0.00 0.00 0.00 83 1015.5
20190123051609 51 186 11.0 21.0 0.00 0.00 0.00 82 1015.6
20190123050035 51 182 11.0 26.0 0.00 0.00 0.00 82 1016.1
20190123044522 51 167 12.0 22.0 0.00 0.00 0.00 82 1016.3
20190123043034 51 168 13.0 20.0 0.00 0.00 0.00 81 1016.6
20190123041558 52 165 14.0 22.0 0.00 0.00 0.00 79 1017.5
20190123040021 52 183 11.0 20.0 0.00 0.00 0.00 78 1017.6
20190123034529 52 185 9.0 20.0 0.00 0.00 0.00 78 1017.9
20190123033022 52 184 11.0 21.0 0.00 0.00 0.00 78 1017.9
20190123031530 52 177 9.0 17.0 0.00 0.00 0.00 78 1018.1
20190123030027 52 156 8.0 20.0 0.00 0.00 0.00 78 1018.4
20190123024513 52 150 11.0 20.0 0.00 0.00 0.00 78 1018.3
20190123023006 52 169 10.0 17.0 0.00 0.00 0.00 78 1018.4
20190123021505 52 158 8.0 17.0 0.00 0.00 0.00 77 1018.8
20190123020007 52 190 10.0 18.0 0.00 0.00 0.00 77 1018.9
20190123014502 52 150 11.0 18.0 0.00 0.00 0.00 77 1018.7
20190123013207 52 130 8.0 19.0 0.00 0.00 0.00 77 1018.6
20190123011652 51 161 8.0 17.0 0.00 0.00 0.00 77 1018.4
20190123010230 51 198 6.0 13.0 0.00 0.00 0.00 77 1018.5